Briefing drone pour Chenove

Rechercher une autre localisation

Conditions de vol :


Nous sommes le : Lundi 06 février 2023
Il est 12:03 UTC (13:03 LT)

Lever de soleil : 06:32 UTC (07:32 LT)
Coucher de soleil : 17:15 UTC (18:15 LT)

Météo

L'essentiel des conditions de vol

VIGILANCE MÉTÉO FRANCE - Côte-dOr (21)
Pas de vigilances particulieres
CARTES DES FRONTS
METAR de LFSD
LFSD 061200Z AUTO 04012KT 9999 OVC033 07/01 Q1034

Date d'émission: 06/02/2023
Heure d'émission: 12:00 UTC
Vent: 040° pour 12 KT (22 km/h)
Visibilité horizontale: > 10 km
Plafond :
- Couvert à 3300ft (1006m)
Température: 7 °C
Point de rosée: 1 °C
Humidité: 66%
Pression (QNH): 1034 hPa
TAF de LFSD
LFSD 010600Z 0100/0124 CNL

Conditions prévues :

Heure d'émission : Bulletin éffectué le 01 à 00:00 UTC
Prévision : Valide du 01 a 00:00 UTC au 01 a 23:59 UTC
Nuages : à 0ft (0 m)
WEBCAM POUR CHENOVE

Réglementation

Voler en sécurité

CARTES AERONAUTIQUE 1/500.000
CARTE AZBA (Reseau basse altitude)
CARTES VAC (LFSD)
SUP AIP




Chargement des AIP...
NOTAM (CHENOVE + Terrain à proximité / FIR )




Chargement des NOTAMS...
CONTACT PREFECTURE 21
Côte-dOr (21) : [email protected]


Avertissement : Les données mises à disposition sont indicatives. Oxygène Drone ne pourra être tenu responsable de dégâts causés aux biens et aux personnes.